sensor_id;sensor_type;location;lat;lon;timestamp;temperature;humidity
80426;DHT22;69766;51.476;5.704;2023-07-24T00:01:59;17.20;99.90
80426;DHT22;69766;51.476;5.704;2023-07-24T00:04:25;17.20;99.90
80426;DHT22;69766;51.476;5.704;2023-07-24T00:06:51;17.20;99.90
80426;DHT22;69766;51.476;5.704;2023-07-24T00:09:16;17.30;99.90
80426;DHT22;69766;51.476;5.704;2023-07-24T00:11:42;17.30;99.90
80426;DHT22;69766;51.476;5.704;2023-07-24T00:14:07;17.30;99.90
80426;DHT22;69766;51.476;5.704;2023-07-24T00:16:33;17.30;99.90
80426;DHT22;69766;51.476;5.704;2023-07-24T00:18:59;17.30;99.90
80426;DHT22;69766;51.476;5.704;2023-07-24T00:21:24;17.30;99.90
80426;DHT22;69766;51.476;5.704;2023-07-24T00:23:50;17.30;99.90
80426;DHT22;69766;51.476;5.704;2023-07-24T00:26:16;17.20;99.90
80426;DHT22;69766;51.476;5.704;2023-07-24T00:28:41;17.20;99.90
80426;DHT22;69766;51.476;5.704;2023-07-24T00:31:07;17.20;99.90
80426;DHT22;69766;51.476;5.704;2023-07-24T00:33:33;17.20;99.90
80426;DHT22;69766;51.476;5.704;2023-07-24T00:35:58;17.20;99.90
80426;DHT22;69766;51.476;5.704;2023-07-24T00:38:24;17.30;99.90
80426;DHT22;69766;51.476;5.704;2023-07-24T00:40:50;17.30;99.90
80426;DHT22;69766;51.476;5.704;2023-07-24T00:43:16;17.30;99.90
80426;DHT22;69766;51.476;5.704;2023-07-24T00:45:42;17.30;99.90
80426;DHT22;69766;51.476;5.704;2023-07-24T00:48:09;17.30;99.90
80426;DHT22;69766;51.476;5.704;2023-07-24T00:50:36;17.30;99.90
80426;DHT22;69766;51.476;5.704;2023-07-24T00:53:02;17.30;99.90
80426;DHT22;69766;51.476;5.704;2023-07-24T00:55:28;17.20;99.90
80426;DHT22;69766;51.476;5.704;2023-07-24T00:57:54;17.20;99.90
80426;DHT22;69766;51.476;5.704;2023-07-24T01:00:20;17.20;99.90
80426;DHT22;69766;51.476;5.704;2023-07-24T01:02:46;17.20;99.90
80426;DHT22;69766;51.476;5.704;2023-07-24T01:05:13;17.30;99.90
80426;DHT22;69766;51.476;5.704;2023-07-24T01:07:40;17.30;99.90
80426;DHT22;69766;51.476;5.704;2023-07-24T01:10:06;17.30;99.90
80426;DHT22;69766;51.476;5.704;2023-07-24T01:13:02;17.30;99.90
80426;DHT22;69766;51.476;5.704;2023-07-24T01:15:33;17.40;99.90
80426;DHT22;69766;51.476;5.704;2023-07-24T01:18:03;17.30;99.90
80426;DHT22;69766;51.476;5.704;2023-07-24T01:20:33;17.40;99.90
80426;DHT22;69766;51.476;5.704;2023-07-24T01:23:29;17.30;99.90
80426;DHT22;69766;51.476;5.704;2023-07-24T01:26:00;17.30;99.90
80426;DHT22;69766;51.476;5.704;2023-07-24T01:28:28;17.30;99.90
80426;DHT22;69766;51.476;5.704;2023-07-24T01:30:54;17.30;99.90
80426;DHT22;69766;51.476;5.704;2023-07-24T01:33:20;17.40;99.90
80426;DHT22;69766;51.476;5.704;2023-07-24T01:35:49;17.40;99.90
80426;DHT22;69766;51.476;5.704;2023-07-24T01:38:16;17.30;99.90
80426;DHT22;69766;51.476;5.704;2023-07-24T01:40:43;17.30;99.90
80426;DHT22;69766;51.476;5.704;2023-07-24T01:43:09;17.40;99.90
80426;DHT22;69766;51.476;5.704;2023-07-24T01:45:35;17.40;99.90
80426;DHT22;69766;51.476;5.704;2023-07-24T01:48:05;17.40;99.90
80426;DHT22;69766;51.476;5.704;2023-07-24T01:50:31;17.40;99.90
80426;DHT22;69766;51.476;5.704;2023-07-24T01:52:57;17.40;99.90
80426;DHT22;69766;51.476;5.704;2023-07-24T01:55:23;17.30;99.90
80426;DHT22;69766;51.476;5.704;2023-07-24T01:57:49;17.30;99.90
80426;DHT22;69766;51.476;5.704;2023-07-24T02:00:15;17.30;99.90
80426;DHT22;69766;51.476;5.704;2023-07-24T02:02:40;17.20;99.90
80426;DHT22;69766;51.476;5.704;2023-07-24T02:05:06;17.20;99.90
80426;DHT22;69766;51.476;5.704;2023-07-24T02:07:32;17.20;99.90
80426;DHT22;69766;51.476;5.704;2023-07-24T02:09:57;17.20;99.90
80426;DHT22;69766;51.476;5.704;2023-07-24T02:12:23;17.30;99.90
80426;DHT22;69766;51.476;5.704;2023-07-24T02:14:49;17.20;99.90
80426;DHT22;69766;51.476;5.704;2023-07-24T02:17:17;17.30;99.90
80426;DHT22;69766;51.476;5.704;2023-07-24T02:19:42;17.30;99.90
80426;DHT22;69766;51.476;5.704;2023-07-24T02:22:08;17.30;99.90
80426;DHT22;69766;51.476;5.704;2023-07-24T02:24:34;17.30;99.90
80426;DHT22;69766;51.476;5.704;2023-07-24T02:27:00;17.30;99.90
80426;DHT22;69766;51.476;5.704;2023-07-24T02:29:25;17.30;99.90
80426;DHT22;69766;51.476;5.704;2023-07-24T02:31:52;17.30;99.90
80426;DHT22;69766;51.476;5.704;2023-07-24T02:34:18;17.30;99.90
80426;DHT22;69766;51.476;5.704;2023-07-24T02:36:44;17.40;99.90
80426;DHT22;69766;51.476;5.704;2023-07-24T02:39:10;17.30;99.90
80426;DHT22;69766;51.476;5.704;2023-07-24T02:41:35;17.40;99.90
80426;DHT22;69766;51.476;5.704;2023-07-24T02:44:02;17.40;99.90
80426;DHT22;69766;51.476;5.704;2023-07-24T02:46:29;17.30;99.90
80426;DHT22;69766;51.476;5.704;2023-07-24T02:48:56;17.30;99.90
80426;DHT22;69766;51.476;5.704;2023-07-24T02:51:21;17.30;99.90
80426;DHT22;69766;51.476;5.704;2023-07-24T02:53:47;17.30;99.90
80426;DHT22;69766;51.476;5.704;2023-07-24T02:56:13;17.40;99.90
80426;DHT22;69766;51.476;5.704;2023-07-24T02:58:38;17.40;99.90
80426;DHT22;69766;51.476;5.704;2023-07-24T03:01:05;17.40;99.90
80426;DHT22;69766;51.476;5.704;2023-07-24T03:03:32;17.40;99.90
80426;DHT22;69766;51.476;5.704;2023-07-24T03:05:58;17.40;99.90
80426;DHT22;69766;51.476;5.704;2023-07-24T03:08:24;17.30;99.90
80426;DHT22;69766;51.476;5.704;2023-07-24T03:10:49;17.30;99.90
80426;DHT22;69766;51.476;5.704;2023-07-24T03:13:15;17.30;99.90
80426;DHT22;69766;51.476;5.704;2023-07-24T03:15:41;17.20;99.90
80426;DHT22;69766;51.476;5.704;2023-07-24T03:18:07;17.20;99.90
80426;DHT22;69766;51.476;5.704;2023-07-24T03:20:32;17.20;99.90
80426;DHT22;69766;51.476;5.704;2023-07-24T03:22:58;17.20;99.90
80426;DHT22;69766;51.476;5.704;2023-07-24T03:25:23;17.10;99.90
80426;DHT22;69766;51.476;5.704;2023-07-24T03:27:49;17.10;99.90
80426;DHT22;69766;51.476;5.704;2023-07-24T03:30:15;17.10;99.90
80426;DHT22;69766;51.476;5.704;2023-07-24T03:32:40;17.10;99.90
80426;DHT22;69766;51.476;5.704;2023-07-24T03:35:06;17.10;99.90
80426;DHT22;69766;51.476;5.704;2023-07-24T03:37:34;17.00;99.90
80426;DHT22;69766;51.476;5.704;2023-07-24T03:40:00;17.00;99.90
80426;DHT22;69766;51.476;5.704;2023-07-24T03:42:30;17.10;99.90
80426;DHT22;69766;51.476;5.704;2023-07-24T03:44:56;17.00;99.90
80426;DHT22;69766;51.476;5.704;2023-07-24T03:47:23;17.00;99.90
80426;DHT22;69766;51.476;5.704;2023-07-24T03:49:49;17.00;99.90
80426;DHT22;69766;51.476;5.704;2023-07-24T03:52:15;17.00;99.90
80426;DHT22;69766;51.476;5.704;2023-07-24T03:54:41;17.00;99.90
80426;DHT22;69766;51.476;5.704;2023-07-24T03:57:06;17.00;99.90
80426;DHT22;69766;51.476;5.704;2023-07-24T03:59:32;17.00;99.90
80426;DHT22;69766;51.476;5.704;2023-07-24T04:01:58;17.00;99.90
80426;DHT22;69766;51.476;5.704;2023-07-24T04:04:24;16.90;99.90
80426;DHT22;69766;51.476;5.704;2023-07-24T04:06:50;16.90;99.90
80426;DHT22;69766;51.476;5.704;2023-07-24T04:09:15;16.90;99.90
80426;DHT22;69766;51.476;5.704;2023-07-24T04:11:43;16.80;99.90
80426;DHT22;69766;51.476;5.704;2023-07-24T04:14:10;16.80;99.90
80426;DHT22;69766;51.476;5.704;2023-07-24T04:16:36;16.70;99.90
80426;DHT22;69766;51.476;5.704;2023-07-24T04:19:07;16.70;99.90
80426;DHT22;69766;51.476;5.704;2023-07-24T04:21:34;16.70;99.90
80426;DHT22;69766;51.476;5.704;2023-07-24T04:23:59;16.70;99.90
80426;DHT22;69766;51.476;5.704;2023-07-24T04:26:25;16.70;99.90
80426;DHT22;69766;51.476;5.704;2023-07-24T04:28:51;16.70;99.90
80426;DHT22;69766;51.476;5.704;2023-07-24T04:31:16;16.70;99.90
80426;DHT22;69766;51.476;5.704;2023-07-24T04:33:42;16.60;99.90
80426;DHT22;69766;51.476;5.704;2023-07-24T04:36:08;16.70;99.90
80426;DHT22;69766;51.476;5.704;2023-07-24T04:38:33;16.60;99.90
80426;DHT22;69766;51.476;5.704;2023-07-24T04:41:02;16.50;99.90
80426;DHT22;69766;51.476;5.704;2023-07-24T04:43:29;16.60;99.90
80426;DHT22;69766;51.476;5.704;2023-07-24T04:45:54;16.70;99.90
80426;DHT22;69766;51.476;5.704;2023-07-24T04:48:20;16.60;99.90
80426;DHT22;69766;51.476;5.704;2023-07-24T04:50:46;16.60;99.90
80426;DHT22;69766;51.476;5.704;2023-07-24T04:53:12;16.50;99.90
80426;DHT22;69766;51.476;5.704;2023-07-24T04:55:38;16.50;99.90
80426;DHT22;69766;51.476;5.704;2023-07-24T04:58:03;16.40;99.90
80426;DHT22;69766;51.476;5.704;2023-07-24T05:00:29;16.40;99.90
80426;DHT22;69766;51.476;5.704;2023-07-24T05:02:54;16.30;99.90
80426;DHT22;69766;51.476;5.704;2023-07-24T05:05:20;16.30;99.90
80426;DHT22;69766;51.476;5.704;2023-07-24T05:07:46;16.30;99.90
80426;DHT22;69766;51.476;5.704;2023-07-24T05:10:12;16.30;99.90
80426;DHT22;69766;51.476;5.704;2023-07-24T05:12:41;16.20;99.90
80426;DHT22;69766;51.476;5.704;2023-07-24T05:15:07;16.30;99.90
80426;DHT22;69766;51.476;5.704;2023-07-24T05:17:33;16.30;99.90
80426;DHT22;69766;51.476;5.704;2023-07-24T05:19:59;16.40;99.90
80426;DHT22;69766;51.476;5.704;2023-07-24T05:22:24;16.30;99.90
80426;DHT22;69766;51.476;5.704;2023-07-24T05:24:50;16.30;99.90
80426;DHT22;69766;51.476;5.704;2023-07-24T05:27:16;16.30;99.90
80426;DHT22;69766;51.476;5.704;2023-07-24T05:29:42;16.40;99.90
80426;DHT22;69766;51.476;5.704;2023-07-24T05:32:07;16.50;99.90
80426;DHT22;69766;51.476;5.704;2023-07-24T05:34:33;16.50;99.90
80426;DHT22;69766;51.476;5.704;2023-07-24T05:37:01;16.60;99.90
80426;DHT22;69766;51.476;5.704;2023-07-24T05:39:26;16.70;99.90
80426;DHT22;69766;51.476;5.704;2023-07-24T05:41:52;16.70;99.90
80426;DHT22;69766;51.476;5.704;2023-07-24T05:44:18;16.70;99.90
80426;DHT22;69766;51.476;5.704;2023-07-24T05:46:43;16.70;99.90
80426;DHT22;69766;51.476;5.704;2023-07-24T05:49:09;16.70;99.90
80426;DHT22;69766;51.476;5.704;2023-07-24T05:51:35;16.60;99.90
80426;DHT22;69766;51.476;5.704;2023-07-24T05:54:00;16.50;99.90
80426;DHT22;69766;51.476;5.704;2023-07-24T05:56:26;16.60;99.90
80426;DHT22;69766;51.476;5.704;2023-07-24T05:58:52;16.60;99.90
80426;DHT22;69766;51.476;5.704;2023-07-24T06:01:17;16.60;99.90
80426;DHT22;69766;51.476;5.704;2023-07-24T06:03:43;16.70;99.90
80426;DHT22;69766;51.476;5.704;2023-07-24T06:06:09;16.70;99.90
80426;DHT22;69766;51.476;5.704;2023-07-24T06:08:34;16.70;99.90
80426;DHT22;69766;51.476;5.704;2023-07-24T06:11:00;16.90;99.90
80426;DHT22;69766;51.476;5.704;2023-07-24T06:13:25;16.90;99.90
80426;DHT22;69766;51.476;5.704;2023-07-24T06:15:52;16.90;99.90
80426;DHT22;69766;51.476;5.704;2023-07-24T06:18:18;17.00;99.90
80426;DHT22;69766;51.476;5.704;2023-07-24T06:20:44;17.00;99.90
80426;DHT22;69766;51.476;5.704;2023-07-24T06:23:10;17.20;99.90
80426;DHT22;69766;51.476;5.704;2023-07-24T06:25:35;17.30;99.90
80426;DHT22;69766;51.476;5.704;2023-07-24T06:28:01;17.40;99.90
80426;DHT22;69766;51.476;5.704;2023-07-24T06:30:28;17.70;99.90
80426;DHT22;69766;51.476;5.704;2023-07-24T06:32:54;17.70;99.90
80426;DHT22;69766;51.476;5.704;2023-07-24T06:35:19;17.70;99.90
80426;DHT22;69766;51.476;5.704;2023-07-24T06:37:45;17.70;99.90
80426;DHT22;69766;51.476;5.704;2023-07-24T06:40:11;17.70;99.90
80426;DHT22;69766;51.476;5.704;2023-07-24T06:42:37;17.80;99.90
80426;DHT22;69766;51.476;5.704;2023-07-24T06:45:03;17.80;99.90
80426;DHT22;69766;51.476;5.704;2023-07-24T06:47:29;17.80;99.90
80426;DHT22;69766;51.476;5.704;2023-07-24T06:49:54;18.00;99.90
80426;DHT22;69766;51.476;5.704;2023-07-24T06:52:20;18.00;99.90
80426;DHT22;69766;51.476;5.704;2023-07-24T06:54:46;18.00;99.90
80426;DHT22;69766;51.476;5.704;2023-07-24T06:57:11;18.00;99.90
80426;DHT22;69766;51.476;5.704;2023-07-24T06:59:37;18.10;99.90
80426;DHT22;69766;51.476;5.704;2023-07-24T07:02:03;18.00;99.90
80426;DHT22;69766;51.476;5.704;2023-07-24T07:04:28;18.10;99.90
80426;DHT22;69766;51.476;5.704;2023-07-24T07:06:54;18.10;99.90
80426;DHT22;69766;51.476;5.704;2023-07-24T07:09:20;18.10;99.90
80426;DHT22;69766;51.476;5.704;2023-07-24T07:11:46;18.00;99.90
80426;DHT22;69766;51.476;5.704;2023-07-24T07:14:11;17.90;99.90
80426;DHT22;69766;51.476;5.704;2023-07-24T07:16:38;17.90;99.90
80426;DHT22;69766;51.476;5.704;2023-07-24T07:19:03;17.90;99.90
80426;DHT22;69766;51.476;5.704;2023-07-24T07:21:29;18.00;99.90
80426;DHT22;69766;51.476;5.704;2023-07-24T07:23:55;17.90;99.90
80426;DHT22;69766;51.476;5.704;2023-07-24T07:26:20;18.00;99.90
80426;DHT22;69766;51.476;5.704;2023-07-24T07:28:47;18.20;99.90
80426;DHT22;69766;51.476;5.704;2023-07-24T07:31:13;18.60;99.90
80426;DHT22;69766;51.476;5.704;2023-07-24T07:33:39;18.80;99.90
80426;DHT22;69766;51.476;5.704;2023-07-24T07:36:05;19.10;99.90
80426;DHT22;69766;51.476;5.704;2023-07-24T07:38:31;18.90;99.90
80426;DHT22;69766;51.476;5.704;2023-07-24T07:40:57;18.60;99.90
80426;DHT22;69766;51.476;5.704;2023-07-24T07:43:23;18.50;99.90
80426;DHT22;69766;51.476;5.704;2023-07-24T07:45:49;18.40;99.90
80426;DHT22;69766;51.476;5.704;2023-07-24T07:48:14;18.40;99.90
80426;DHT22;69766;51.476;5.704;2023-07-24T07:50:40;18.60;99.90
80426;DHT22;69766;51.476;5.704;2023-07-24T07:53:06;18.90;99.90
80426;DHT22;69766;51.476;5.704;2023-07-24T07:55:32;19.10;99.90
80426;DHT22;69766;51.476;5.704;2023-07-24T07:57:58;19.00;99.90
80426;DHT22;69766;51.476;5.704;2023-07-24T08:00:23;19.10;99.90
80426;DHT22;69766;51.476;5.704;2023-07-24T08:02:49;19.00;99.90
80426;DHT22;69766;51.476;5.704;2023-07-24T08:05:15;19.20;99.90
80426;DHT22;69766;51.476;5.704;2023-07-24T08:07:41;19.50;99.90
80426;DHT22;69766;51.476;5.704;2023-07-24T08:10:07;19.30;99.90
80426;DHT22;69766;51.476;5.704;2023-07-24T08:12:33;19.50;99.90
80426;DHT22;69766;51.476;5.704;2023-07-24T08:14:59;19.20;99.90
80426;DHT22;69766;51.476;5.704;2023-07-24T08:17:24;19.40;99.90
80426;DHT22;69766;51.476;5.704;2023-07-24T08:19:50;20.00;99.90
80426;DHT22;69766;51.476;5.704;2023-07-24T08:22:16;20.40;99.90
80426;DHT22;69766;51.476;5.704;2023-07-24T08:24:41;20.40;99.90
80426;DHT22;69766;51.476;5.704;2023-07-24T08:27:07;20.30;99.90
80426;DHT22;69766;51.476;5.704;2023-07-24T08:29:33;20.20;99.90
80426;DHT22;69766;51.476;5.704;2023-07-24T08:32:00;20.90;99.90
80426;DHT22;69766;51.476;5.704;2023-07-24T08:34:26;20.90;99.90
80426;DHT22;69766;51.476;5.704;2023-07-24T08:36:51;20.80;99.90
80426;DHT22;69766;51.476;5.704;2023-07-24T08:39:17;20.80;99.90
80426;DHT22;69766;51.476;5.704;2023-07-24T08:41:46;20.30;99.90
80426;DHT22;69766;51.476;5.704;2023-07-24T08:44:11;20.00;99.90
80426;DHT22;69766;51.476;5.704;2023-07-24T08:46:38;19.90;99.90
80426;DHT22;69766;51.476;5.704;2023-07-24T08:49:10;19.70;99.90
80426;DHT22;69766;51.476;5.704;2023-07-24T08:51:37;19.70;99.90
80426;DHT22;69766;51.476;5.704;2023-07-24T08:54:04;19.90;99.90
80426;DHT22;69766;51.476;5.704;2023-07-24T08:56:30;20.00;99.90
80426;DHT22;69766;51.476;5.704;2023-07-24T08:58:56;20.60;99.90
80426;DHT22;69766;51.476;5.704;2023-07-24T09:01:22;20.90;99.90
80426;DHT22;69766;51.476;5.704;2023-07-24T09:03:47;21.00;99.90
80426;DHT22;69766;51.476;5.704;2023-07-24T09:06:13;21.00;99.90
80426;DHT22;69766;51.476;5.704;2023-07-24T09:08:43;20.60;99.90
80426;DHT22;69766;51.476;5.704;2023-07-24T09:11:10;20.30;99.90
80426;DHT22;69766;51.476;5.704;2023-07-24T09:13:37;20.00;99.90
80426;DHT22;69766;51.476;5.704;2023-07-24T09:16:03;19.80;99.90
80426;DHT22;69766;51.476;5.704;2023-07-24T09:18:42;19.60;99.90
80426;DHT22;69766;51.476;5.704;2023-07-24T09:21:09;19.60;99.90
80426;DHT22;69766;51.476;5.704;2023-07-24T09:23:37;19.80;99.90
80426;DHT22;69766;51.476;5.704;2023-07-24T09:26:07;20.50;99.90
80426;DHT22;69766;51.476;5.704;2023-07-24T09:28:34;21.00;99.90
80426;DHT22;69766;51.476;5.704;2023-07-24T09:31:00;21.30;99.90
80426;DHT22;69766;51.476;5.704;2023-07-24T09:33:38;22.20;99.90
80426;DHT22;69766;51.476;5.704;2023-07-24T09:36:05;23.40;99.90
80426;DHT22;69766;51.476;5.704;2023-07-24T09:38:32;24.40;99.90
80426;DHT22;69766;51.476;5.704;2023-07-24T09:41:00;25.40;99.90
80426;DHT22;69766;51.476;5.704;2023-07-24T09:43:27;26.50;99.00
80426;DHT22;69766;51.476;5.704;2023-07-24T09:45:54;25.60;96.00
80426;DHT22;69766;51.476;5.704;2023-07-24T09:48:26;24.30;99.90
80426;DHT22;69766;51.476;5.704;2023-07-24T09:50:54;23.20;99.90
80426;DHT22;69766;51.476;5.704;2023-07-24T09:53:43;22.40;99.90
80426;DHT22;69766;51.476;5.704;2023-07-24T09:56:09;21.70;99.90
80426;DHT22;69766;51.476;5.704;2023-07-24T09:58:39;21.40;99.90
80426;DHT22;69766;51.476;5.704;2023-07-24T10:01:08;20.90;99.90
80426;DHT22;69766;51.476;5.704;2023-07-24T10:03:35;20.70;99.90
80426;DHT22;69766;51.476;5.704;2023-07-24T10:06:02;20.70;99.90
80426;DHT22;69766;51.476;5.704;2023-07-24T10:08:28;20.50;99.90
80426;DHT22;69766;51.476;5.704;2023-07-24T10:10:54;20.20;99.90
80426;DHT22;69766;51.476;5.704;2023-07-24T10:13:21;20.10;99.90
80426;DHT22;69766;51.476;5.704;2023-07-24T10:15:48;20.00;99.90
80426;DHT22;69766;51.476;5.704;2023-07-24T10:18:16;19.90;99.90
80426;DHT22;69766;51.476;5.704;2023-07-24T10:20:43;19.70;99.90
80426;DHT22;69766;51.476;5.704;2023-07-24T10:23:11;19.50;99.90
80426;DHT22;69766;51.476;5.704;2023-07-24T10:25:39;19.40;99.90
80426;DHT22;69766;51.476;5.704;2023-07-24T10:31:01;19.20;99.90
80426;DHT22;69766;51.476;5.704;2023-07-24T10:33:30;19.10;99.90
80426;DHT22;69766;51.476;5.704;2023-07-24T10:36:08;19.00;99.90
80426;DHT22;69766;51.476;5.704;2023-07-24T10:38:40;19.00;99.90
80426;DHT22;69766;51.476;5.704;2023-07-24T10:41:08;19.00;99.90
80426;DHT22;69766;51.476;5.704;2023-07-24T10:43:51;19.00;99.90
80426;DHT22;69766;51.476;5.704;2023-07-24T10:46:19;19.10;99.90
80426;DHT22;69766;51.476;5.704;2023-07-24T10:48:47;19.10;99.90
80426;DHT22;69766;51.476;5.704;2023-07-24T10:51:14;19.10;99.90
80426;DHT22;69766;51.476;5.704;2023-07-24T10:53:45;19.00;99.90
80426;DHT22;69766;51.476;5.704;2023-07-24T10:56:11;19.00;99.90
80426;DHT22;69766;51.476;5.704;2023-07-24T10:58:37;19.00;99.90
80426;DHT22;69766;51.476;5.704;2023-07-24T11:01:04;19.00;99.90
80426;DHT22;69766;51.476;5.704;2023-07-24T11:03:30;19.10;99.90
80426;DHT22;69766;51.476;5.704;2023-07-24T11:05:58;19.20;99.90
80426;DHT22;69766;51.476;5.704;2023-07-24T11:08:24;19.60;99.90
80426;DHT22;69766;51.476;5.704;2023-07-24T11:10:55;20.00;99.90
80426;DHT22;69766;51.476;5.704;2023-07-24T11:13:27;20.20;99.90
80426;DHT22;69766;51.476;5.704;2023-07-24T11:19:09;20.30;99.90
80426;DHT22;69766;51.476;5.704;2023-07-24T11:21:52;20.50;99.90
80426;DHT22;69766;51.476;5.704;2023-07-24T11:24:29;21.20;99.90
80426;DHT22;69766;51.476;5.704;2023-07-24T11:26:54;21.90;99.90
80426;DHT22;69766;51.476;5.704;2023-07-24T11:29:20;22.00;99.90
80426;DHT22;69766;51.476;5.704;2023-07-24T11:31:46;22.00;99.90
80426;DHT22;69766;51.476;5.704;2023-07-24T11:34:12;21.90;99.90
80426;DHT22;69766;51.476;5.704;2023-07-24T11:36:38;21.70;99.90
80426;DHT22;69766;51.476;5.704;2023-07-24T11:39:04;21.30;99.90
80426;DHT22;69766;51.476;5.704;2023-07-24T11:41:30;21.10;99.90
80426;DHT22;69766;51.476;5.704;2023-07-24T11:43:55;21.20;99.90
80426;DHT22;69766;51.476;5.704;2023-07-24T11:46:28;21.10;99.90
80426;DHT22;69766;51.476;5.704;2023-07-24T11:48:54;20.70;99.90
80426;DHT22;69766;51.476;5.704;2023-07-24T11:51:22;20.40;99.90
80426;DHT22;69766;51.476;5.704;2023-07-24T11:53:50;20.20;99.90
80426;DHT22;69766;51.476;5.704;2023-07-24T11:56:17;20.10;99.90
80426;DHT22;69766;51.476;5.704;2023-07-24T11:58:44;20.20;99.90
80426;DHT22;69766;51.476;5.704;2023-07-24T12:01:12;20.30;99.90
80426;DHT22;69766;51.476;5.704;2023-07-24T12:03:38;20.40;99.90
80426;DHT22;69766;51.476;5.704;2023-07-24T12:06:04;20.40;99.90
80426;DHT22;69766;51.476;5.704;2023-07-24T12:08:34;20.30;99.90
80426;DHT22;69766;51.476;5.704;2023-07-24T12:11:00;20.40;99.90
80426;DHT22;69766;51.476;5.704;2023-07-24T12:13:25;20.80;99.90
80426;DHT22;69766;51.476;5.704;2023-07-24T12:15:51;20.60;99.90
80426;DHT22;69766;51.476;5.704;2023-07-24T12:18:17;20.70;99.90
80426;DHT22;69766;51.476;5.704;2023-07-24T12:20:43;20.90;99.90
80426;DHT22;69766;51.476;5.704;2023-07-24T12:23:08;21.10;99.90
80426;DHT22;69766;51.476;5.704;2023-07-24T12:25:34;21.20;99.90
80426;DHT22;69766;51.476;5.704;2023-07-24T12:28:00;21.20;99.90
80426;DHT22;69766;51.476;5.704;2023-07-24T12:30:26;21.10;99.90
80426;DHT22;69766;51.476;5.704;2023-07-24T12:32:51;21.00;99.90
80426;DHT22;69766;51.476;5.704;2023-07-24T12:35:17;21.00;99.90
80426;DHT22;69766;51.476;5.704;2023-07-24T12:37:43;21.10;99.90
80426;DHT22;69766;51.476;5.704;2023-07-24T12:40:09;20.90;99.90
80426;DHT22;69766;51.476;5.704;2023-07-24T12:42:35;20.80;99.90
80426;DHT22;69766;51.476;5.704;2023-07-24T12:45:01;20.60;99.90
80426;DHT22;69766;51.476;5.704;2023-07-24T12:47:30;20.70;99.90
80426;DHT22;69766;51.476;5.704;2023-07-24T12:49:56;21.00;99.90
80426;DHT22;69766;51.476;5.704;2023-07-24T12:52:23;21.80;99.90
80426;DHT22;69766;51.476;5.704;2023-07-24T12:54:49;22.40;99.90
80426;DHT22;69766;51.476;5.704;2023-07-24T12:57:15;22.40;99.90
80426;DHT22;69766;51.476;5.704;2023-07-24T12:59:41;22.50;99.90
80426;DHT22;69766;51.476;5.704;2023-07-24T13:02:06;22.30;99.90
80426;DHT22;69766;51.476;5.704;2023-07-24T13:04:32;22.60;99.90
80426;DHT22;69766;51.476;5.704;2023-07-24T13:06:58;22.90;99.90
80426;DHT22;69766;51.476;5.704;2023-07-24T13:09:25;22.80;99.90
80426;DHT22;69766;51.476;5.704;2023-07-24T13:11:51;22.20;99.90
80426;DHT22;69766;51.476;5.704;2023-07-24T13:14:20;21.70;99.90
80426;DHT22;69766;51.476;5.704;2023-07-24T13:16:45;21.50;99.90
80426;DHT22;69766;51.476;5.704;2023-07-24T13:19:11;21.40;99.90
80426;DHT22;69766;51.476;5.704;2023-07-24T13:21:37;21.60;99.90
80426;DHT22;69766;51.476;5.704;2023-07-24T13:24:03;22.40;99.90
80426;DHT22;69766;51.476;5.704;2023-07-24T13:26:28;22.90;99.90
80426;DHT22;69766;51.476;5.704;2023-07-24T13:28:54;23.40;99.90
80426;DHT22;69766;51.476;5.704;2023-07-24T13:31:20;23.60;99.90
80426;DHT22;69766;51.476;5.704;2023-07-24T13:33:47;22.80;99.90
80426;DHT22;69766;51.476;5.704;2023-07-24T13:36:13;22.50;99.90
80426;DHT22;69766;51.476;5.704;2023-07-24T13:38:40;21.90;99.90
80426;DHT22;69766;51.476;5.704;2023-07-24T13:41:05;21.50;99.90
80426;DHT22;69766;51.476;5.704;2023-07-24T13:43:32;21.40;99.90
80426;DHT22;69766;51.476;5.704;2023-07-24T13:45:58;21.60;99.90
80426;DHT22;69766;51.476;5.704;2023-07-24T13:48:26;22.10;99.90
80426;DHT22;69766;51.476;5.704;2023-07-24T13:50:51;22.20;99.90
80426;DHT22;69766;51.476;5.704;2023-07-24T13:53:17;23.00;99.90
80426;DHT22;69766;51.476;5.704;2023-07-24T13:55:43;23.70;99.90
80426;DHT22;69766;51.476;5.704;2023-07-24T13:58:08;23.30;99.90
80426;DHT22;69766;51.476;5.704;2023-07-24T14:00:34;22.80;99.90
80426;DHT22;69766;51.476;5.704;2023-07-24T14:03:00;22.50;99.90
80426;DHT22;69766;51.476;5.704;2023-07-24T14:05:25;22.10;99.90
80426;DHT22;69766;51.476;5.704;2023-07-24T14:07:51;21.80;99.90
80426;DHT22;69766;51.476;5.704;2023-07-24T14:10:17;21.50;99.90
80426;DHT22;69766;51.476;5.704;2023-07-24T14:12:42;21.20;99.90
80426;DHT22;69766;51.476;5.704;2023-07-24T14:15:08;21.10;99.90
80426;DHT22;69766;51.476;5.704;2023-07-24T14:17:34;20.80;99.90
80426;DHT22;69766;51.476;5.704;2023-07-24T14:20:03;20.70;99.90
80426;DHT22;69766;51.476;5.704;2023-07-24T14:22:29;20.40;99.90
80426;DHT22;69766;51.476;5.704;2023-07-24T14:24:54;20.30;99.90
80426;DHT22;69766;51.476;5.704;2023-07-24T14:27:20;20.00;99.90
80426;DHT22;69766;51.476;5.704;2023-07-24T14:29:46;19.80;99.90
80426;DHT22;69766;51.476;5.704;2023-07-24T14:32:11;19.30;99.90
80426;DHT22;69766;51.476;5.704;2023-07-24T14:34:37;18.90;99.90
80426;DHT22;69766;51.476;5.704;2023-07-24T14:37:03;18.20;99.90
80426;DHT22;69766;51.476;5.704;2023-07-24T14:39:29;17.70;99.90
80426;DHT22;69766;51.476;5.704;2023-07-24T14:41:54;17.40;99.90
80426;DHT22;69766;51.476;5.704;2023-07-24T14:44:20;17.10;99.90
80426;DHT22;69766;51.476;5.704;2023-07-24T14:46:46;17.10;99.90
80426;DHT22;69766;51.476;5.704;2023-07-24T14:49:11;17.40;99.90
80426;DHT22;69766;51.476;5.704;2023-07-24T14:51:37;17.70;99.90
80426;DHT22;69766;51.476;5.704;2023-07-24T14:54:03;18.00;99.90
80426;DHT22;69766;51.476;5.704;2023-07-24T14:56:29;18.30;99.90
80426;DHT22;69766;51.476;5.704;2023-07-24T14:58:54;18.60;99.90
80426;DHT22;69766;51.476;5.704;2023-07-24T15:01:20;18.90;99.90
80426;DHT22;69766;51.476;5.704;2023-07-24T15:03:46;19.20;99.90
80426;DHT22;69766;51.476;5.704;2023-07-24T15:06:11;19.90;99.90
80426;DHT22;69766;51.476;5.704;2023-07-24T15:08:37;20.70;99.90
80426;DHT22;69766;51.476;5.704;2023-07-24T15:11:03;21.10;99.90
80426;DHT22;69766;51.476;5.704;2023-07-24T15:13:28;20.90;99.90
80426;DHT22;69766;51.476;5.704;2023-07-24T15:15:54;20.40;99.90
80426;DHT22;69766;51.476;5.704;2023-07-24T15:18:20;20.30;99.90
80426;DHT22;69766;51.476;5.704;2023-07-24T15:20:46;20.50;99.90
80426;DHT22;69766;51.476;5.704;2023-07-24T15:23:12;20.90;99.90
80426;DHT22;69766;51.476;5.704;2023-07-24T15:25:38;21.30;99.90
80426;DHT22;69766;51.476;5.704;2023-07-24T15:28:04;21.00;99.90
80426;DHT22;69766;51.476;5.704;2023-07-24T15:30:31;21.00;99.90
80426;DHT22;69766;51.476;5.704;2023-07-24T15:32:57;20.70;99.90